createdAt,value
2022-08-31T00:00:19.301Z,1015.44
2022-08-31T00:00:52.469Z,1015.44
2022-08-31T00:01:24.540Z,1015.51
2022-08-31T00:01:47.460Z,1015.51
2022-08-31T00:02:09.850Z,1015.51
2022-08-31T00:02:46.416Z,1015.51
2022-08-31T00:03:18.078Z,1015.51
2022-08-31T00:03:49.589Z,1015.51
2022-08-31T00:04:19.404Z,1015.71
2022-08-31T00:04:53.131Z,1015.71
2022-08-31T00:05:24.943Z,1015.51
2022-08-31T00:05:47.730Z,1015.51
2022-08-31T00:06:10.379Z,1015.51
2022-08-31T00:06:45.195Z,1015.51
2022-08-31T00:07:16.718Z,1015.44
2022-08-31T00:07:49.094Z,1015.44
2022-08-31T00:08:21.900Z,1015.51
2022-08-31T00:08:52.559Z,1015.51
2022-08-31T00:09:25.942Z,1015.51
2022-08-31T00:09:48.944Z,1015.51
2022-08-31T00:10:11.058Z,1015.51
2022-08-31T00:10:44.990Z,1015.51
2022-08-31T00:11:16.817Z,1015.34
2022-08-31T00:11:49.021Z,1015.34
2022-08-31T00:12:19.192Z,1015.61
2022-08-31T00:12:57.576Z,1015.44
2022-08-31T00:13:24.584Z,1015.44
2022-08-31T00:13:47.161Z,1015.51
2022-08-31T00:14:13.329Z,1015.51
2022-08-31T00:14:44.901Z,1015.51
2022-08-31T00:15:17.684Z,1015.51
2022-08-31T00:15:48.400Z,1015.51
2022-08-31T00:16:20.762Z,1015.51
2022-08-31T00:16:52.780Z,1015.51
2022-08-31T00:17:25.081Z,1015.51
2022-08-31T00:17:47.757Z,1015.24
2022-08-31T00:18:13.594Z,1015.24
2022-08-31T00:18:45.523Z,1015.24
2022-08-31T00:19:16.383Z,1015.34
2022-08-31T00:19:48.597Z,1015.34
2022-08-31T00:20:21.636Z,1015.14
2022-08-31T00:20:54.338Z,1015.34
2022-08-31T00:21:25.120Z,1015.34
2022-08-31T00:21:47.741Z,1015.34
2022-08-31T00:22:10.635Z,1015.34
2022-08-31T00:22:50.275Z,1015.34
2022-08-31T00:23:16.984Z,1015.34
2022-08-31T00:23:48.769Z,1015.34
2022-08-31T00:24:20.152Z,1015.24
2022-08-31T00:24:53.386Z,1015.24
2022-08-31T00:25:25.593Z,1015.44
2022-08-31T00:25:48.308Z,1015.44
2022-08-31T00:26:10.811Z,1015.44
2022-08-31T00:26:44.660Z,1015.44
2022-08-31T00:27:16.525Z,1015.44
2022-08-31T00:27:49.051Z,1015.44
2022-08-31T00:28:19.471Z,1015.44
2022-08-31T00:28:52.509Z,1015.44
2022-08-31T00:29:25.015Z,1015.34
2022-08-31T00:29:47.490Z,1015.51
2022-08-31T00:30:10.057Z,1015.51
2022-08-31T00:30:44.673Z,1015.51
2022-08-31T00:31:17.120Z,1015.34
2022-08-31T00:31:48.553Z,1015.34
2022-08-31T00:32:21.484Z,1015.44
2022-08-31T00:32:52.585Z,1015.44
2022-08-31T00:33:25.074Z,1015.51
2022-08-31T00:33:47.636Z,1015.34
2022-08-31T00:34:10.036Z,1015.34
2022-08-31T00:34:44.574Z,1015.34
2022-08-31T00:35:17.097Z,1015.34
2022-08-31T00:35:50.186Z,1015.34
2022-08-31T00:36:19.521Z,1015.34
2022-08-31T00:36:52.583Z,1015.34
2022-08-31T00:37:24.505Z,1015.24
2022-08-31T00:37:47.277Z,1015.51
2022-08-31T00:38:10.690Z,1015.51
2022-08-31T00:38:45.071Z,1015.51
2022-08-31T00:39:17.021Z,1015.24
2022-08-31T00:39:48.460Z,1015.24
2022-08-31T00:40:19.589Z,1015.44
2022-08-31T00:40:52.596Z,1015.44
2022-08-31T00:41:24.581Z,1015.34
2022-08-31T00:41:47.446Z,1015.34
2022-08-31T00:42:09.872Z,1015.34
2022-08-31T00:42:44.484Z,1015.34
2022-08-31T00:43:16.729Z,1015.34
2022-08-31T00:43:48.989Z,1015.34
2022-08-31T00:44:19.272Z,1015.51
2022-08-31T00:44:52.593Z,1015.51
2022-08-31T00:45:25.095Z,1015.34
2022-08-31T00:45:47.275Z,1015.34
2022-08-31T00:46:10.365Z,1015.34
2022-08-31T00:46:44.787Z,1015.34
2022-08-31T00:47:16.884Z,1015.44
2022-08-31T00:47:49.499Z,1015.44
2022-08-31T00:48:19.799Z,1015.44
2022-08-31T00:48:52.469Z,1015.44
2022-08-31T00:49:24.724Z,1015.51
2022-08-31T00:49:47.938Z,1015.24
2022-08-31T00:50:09.849Z,1015.24
2022-08-31T00:50:45.260Z,1015.24
2022-08-31T00:51:18.852Z,1015.61
2022-08-31T00:51:48.545Z,1015.61
2022-08-31T00:52:19.324Z,1015.44
2022-08-31T00:52:52.448Z,1015.44
2022-08-31T00:53:24.542Z,1015.51
2022-08-31T00:53:47.297Z,1015.24
2022-08-31T00:54:10.133Z,1015.24
2022-08-31T00:54:44.796Z,1015.24
2022-08-31T00:55:17.082Z,1015.44
2022-08-31T00:55:48.412Z,1015.44
2022-08-31T00:56:19.378Z,1015.34
2022-08-31T00:56:52.342Z,1015.34
2022-08-31T00:57:34.061Z,1015.44
2022-08-31T00:57:47.601Z,1015.61
2022-08-31T00:58:09.653Z,1015.61
2022-08-31T00:58:44.898Z,1015.61
2022-08-31T00:59:16.552Z,1015.44
2022-08-31T00:59:49.246Z,1015.44
2022-08-31T01:00:19.224Z,1015.34
2022-08-31T01:00:52.709Z,1015.34
2022-08-31T01:01:24.529Z,1015.34
2022-08-31T01:01:47.298Z,1015.34
2022-08-31T01:02:09.622Z,1015.34
2022-08-31T01:02:46.258Z,1015.34
2022-08-31T01:03:18.909Z,1015.24
2022-08-31T01:03:48.637Z,1015.24
2022-08-31T01:04:19.897Z,1015.14
2022-08-31T01:04:52.795Z,1015.14
2022-08-31T01:05:27.342Z,1015.51
2022-08-31T01:05:47.568Z,1015.44
2022-08-31T01:06:10.577Z,1015.44
2022-08-31T01:06:45.646Z,1015.44
2022-08-31T01:07:16.970Z,1015.34
2022-08-31T01:07:48.945Z,1015.34
2022-08-31T01:08:19.182Z,1015.51
2022-08-31T01:08:52.548Z,1015.51
2022-08-31T01:09:25.135Z,1015.61
2022-08-31T01:09:55.346Z,1015.24
2022-08-31T01:10:11.087Z,1015.24
2022-08-31T01:10:44.582Z,1015.24
2022-08-31T01:11:16.740Z,1015.51
2022-08-31T01:11:48.406Z,1015.51
2022-08-31T01:12:20.342Z,1015.51
2022-08-31T01:12:56.345Z,1015.44
2022-08-31T01:13:24.868Z,1015.44
2022-08-31T01:13:47.331Z,1015.44
2022-08-31T01:14:09.882Z,1015.44
2022-08-31T01:14:45.205Z,1015.44
2022-08-31T01:15:16.493Z,1015.34
2022-08-31T01:15:50.398Z,1015.34
2022-08-31T01:16:19.905Z,1015.44
2022-08-31T01:16:52.460Z,1015.44
2022-08-31T01:17:24.614Z,1015.44
2022-08-31T01:17:47.324Z,1015.44
2022-08-31T01:18:09.893Z,1015.44
2022-08-31T01:18:44.486Z,1015.44
2022-08-31T01:19:16.416Z,1015.34
2022-08-31T01:19:48.433Z,1015.34
2022-08-31T01:20:22.893Z,1015.51
2022-08-31T01:20:52.882Z,1015.51
2022-08-31T01:21:24.604Z,1015.44
2022-08-31T01:21:47.490Z,1015.61
2022-08-31T01:22:09.801Z,1015.61
2022-08-31T01:22:44.988Z,1015.61
2022-08-31T01:23:17.957Z,1015.34
2022-08-31T01:23:48.619Z,1015.34
2022-08-31T01:24:19.346Z,1015.24
2022-08-31T01:24:52.748Z,1015.24
2022-08-31T01:25:24.479Z,1015.44
2022-08-31T01:25:47.157Z,1015.34
2022-08-31T01:26:10.005Z,1015.34
2022-08-31T01:26:44.545Z,1015.34
2022-08-31T01:27:17.147Z,1015.51
2022-08-31T01:27:48.592Z,1015.51
2022-08-31T01:28:19.522Z,1015.44
2022-08-31T01:28:52.401Z,1015.44
2022-08-31T01:29:24.424Z,1015.24
2022-08-31T01:29:47.122Z,1015.51
2022-08-31T01:30:09.616Z,1015.51
2022-08-31T01:30:44.429Z,1015.51
2022-08-31T01:31:16.439Z,1015.61
2022-08-31T01:31:56.787Z,1015.51
2022-08-31T01:32:19.275Z,1015.51
2022-08-31T01:32:52.741Z,1015.51
2022-08-31T01:33:25.257Z,1015.51
2022-08-31T01:33:47.733Z,1015.51
2022-08-31T01:34:10.117Z,1015.51
2022-08-31T01:34:44.454Z,1015.51
2022-08-31T01:35:16.611Z,1015.51
2022-08-31T01:35:48.687Z,1015.51
2022-08-31T01:36:20.329Z,1015.61
2022-08-31T01:36:52.817Z,1015.61
2022-08-31T01:37:29.097Z,1015.51
2022-08-31T01:37:47.517Z,1015.51
2022-08-31T01:38:10.191Z,1015.51
2022-08-31T01:38:44.610Z,1015.51
2022-08-31T01:39:16.995Z,1015.61
2022-08-31T01:39:49.185Z,1015.61
2022-08-31T01:40:21.235Z,1015.61
2022-08-31T01:40:53.263Z,1015.61
2022-08-31T01:41:24.422Z,1015.61
2022-08-31T01:41:47.203Z,1015.61
2022-08-31T01:42:10.449Z,1015.61
2022-08-31T01:42:44.575Z,1015.61
2022-08-31T01:43:16.740Z,1015.51
2022-08-31T01:43:48.589Z,1015.51
2022-08-31T01:44:19.492Z,1015.61
2022-08-31T01:44:52.372Z,1015.61
2022-08-31T01:45:24.436Z,1015.81
2022-08-31T01:45:47.209Z,1015.61
2022-08-31T01:46:10.119Z,1015.61
2022-08-31T01:46:45.390Z,1015.61
2022-08-31T01:47:17.400Z,1015.71
2022-08-31T01:47:48.500Z,1015.71
2022-08-31T01:48:22.840Z,1015.51
2022-08-31T01:48:54.193Z,1015.71
2022-08-31T01:49:24.737Z,1015.71
2022-08-31T01:49:48.546Z,1015.61
2022-08-31T01:50:10.370Z,1015.61
2022-08-31T01:50:45.281Z,1015.61
2022-08-31T01:51:16.917Z,1015.61
2022-08-31T01:51:48.412Z,1015.61
2022-08-31T01:52:19.634Z,1015.61
2022-08-31T01:52:52.875Z,1015.61
2022-08-31T01:53:25.208Z,1015.61
2022-08-31T01:53:48.523Z,1015.61
2022-08-31T01:54:11.628Z,1015.61
2022-08-31T01:54:44.893Z,1015.61
2022-08-31T01:55:16.356Z,1015.71
2022-08-31T01:55:52.162Z,1015.71
2022-08-31T01:56:19.397Z,1015.61
2022-08-31T01:56:53.301Z,1015.61
2022-08-31T01:57:33.492Z,1015.51
2022-08-31T01:57:47.142Z,1015.61
2022-08-31T01:58:09.971Z,1015.61
2022-08-31T01:58:45.234Z,1015.61
2022-08-31T01:59:16.495Z,1015.71
2022-08-31T01:59:48.235Z,1015.71
2022-08-31T02:00:19.334Z,1015.51
2022-08-31T02:00:52.927Z,1015.51
2022-08-31T02:01:33.277Z,1015.44
2022-08-31T02:01:47.280Z,1015.51
2022-08-31T02:02:09.546Z,1015.51
2022-08-31T02:02:50.554Z,1015.51
2022-08-31T02:03:16.650Z,1015.71
2022-08-31T02:03:49.302Z,1015.71
2022-08-31T02:04:19.288Z,1015.61
2022-08-31T02:04:52.482Z,1015.61
2022-08-31T02:05:24.833Z,1015.61
2022-08-31T02:05:47.059Z,1015.51
2022-08-31T02:06:10.507Z,1015.51
2022-08-31T02:06:44.614Z,1015.51
2022-08-31T02:07:16.985Z,1015.71
2022-08-31T02:07:48.604Z,1015.71
2022-08-31T02:08:19.319Z,1015.44
2022-08-31T02:08:52.683Z,1015.44
2022-08-31T02:09:25.158Z,1015.61
2022-08-31T02:09:47.876Z,1015.44
2022-08-31T02:12:29.477Z,1015.44
2022-08-31T02:12:51.033Z,1015.44
2022-08-31T02:13:50.926Z,1015.61
2022-08-31T02:14:28.686Z,1015.61
2022-08-31T02:14:50.945Z,1015.71
2022-08-31T02:15:15.421Z,1015.71
2022-08-31T02:15:48.691Z,1015.71
2022-08-31T02:16:20.173Z,1015.71
2022-08-31T02:16:54.482Z,1015.61
2022-08-31T02:17:26.536Z,1015.61
2022-08-31T02:17:49.442Z,1015.81
2022-08-31T02:18:12.113Z,1015.81
2022-08-31T02:18:45.098Z,1015.81
2022-08-31T02:19:16.463Z,1015.61
2022-08-31T02:19:48.491Z,1015.61
2022-08-31T02:20:19.451Z,1015.81
2022-08-31T02:20:53.246Z,1015.81
2022-08-31T02:21:24.987Z,1015.71
2022-08-31T02:21:47.603Z,1015.71
2022-08-31T02:22:13.501Z,1015.71
2022-08-31T02:22:44.731Z,1015.71
2022-08-31T02:23:18.107Z,1015.61
2022-08-31T02:23:48.377Z,1015.61
2022-08-31T02:24:22.836Z,1015.51
2022-08-31T02:24:52.433Z,1015.51
2022-08-31T02:25:25.585Z,1015.71
2022-08-31T02:25:49.871Z,1015.61
2022-08-31T02:26:11.043Z,1015.61
2022-08-31T02:26:44.842Z,1015.61
2022-08-31T02:27:16.809Z,1015.44
2022-08-31T02:27:49.221Z,1015.44
2022-08-31T02:28:19.274Z,1015.51
2022-08-31T02:28:52.345Z,1015.51
2022-08-31T02:29:24.270Z,1015.51
2022-08-31T02:29:46.982Z,1015.71
2022-08-31T02:30:09.827Z,1015.71
2022-08-31T02:30:44.517Z,1015.71
2022-08-31T02:31:16.457Z,1015.61
2022-08-31T02:31:48.415Z,1015.61
2022-08-31T02:32:20.334Z,1015.61
2022-08-31T02:32:52.313Z,1015.61
2022-08-31T02:33:25.107Z,1015.51
2022-08-31T02:33:47.610Z,1015.51
2022-08-31T02:34:12.606Z,1015.51
2022-08-31T02:34:45.338Z,1015.51
2022-08-31T02:35:16.340Z,1015.34
2022-08-31T02:35:51.764Z,1015.34
2022-08-31T02:36:19.410Z,1015.61
2022-08-31T02:36:52.415Z,1015.61
2022-08-31T02:37:25.126Z,1015.51
2022-08-31T02:37:47.997Z,1015.61
2022-08-31T02:38:11.052Z,1015.61
2022-08-31T02:38:45.093Z,1015.61
2022-08-31T02:39:17.128Z,1015.51
2022-08-31T02:39:48.693Z,1015.51
2022-08-31T02:40:20.003Z,1015.61
2022-08-31T02:40:52.210Z,1015.61
2022-08-31T02:41:24.520Z,1015.61
2022-08-31T02:41:47.718Z,1015.51
2022-08-31T02:42:09.672Z,1015.51
2022-08-31T02:42:52.724Z,1015.51
2022-08-31T02:43:24.440Z,1015.51
2022-08-31T02:43:48.950Z,1015.51
2022-08-31T02:44:19.187Z,1015.71
2022-08-31T02:44:52.385Z,1015.71
2022-08-31T02:45:24.455Z,1015.44
2022-08-31T02:45:51.081Z,1015.44
2022-08-31T02:46:09.979Z,1015.44
2022-08-31T02:46:45.840Z,1015.44
2022-08-31T02:47:16.618Z,1015.51
2022-08-31T02:47:48.290Z,1015.51
2022-08-31T02:48:19.331Z,1015.44
2022-08-31T02:48:52.359Z,1015.44
2022-08-31T02:49:26.960Z,1015.44
2022-08-31T02:49:47.943Z,1015.61
2022-08-31T02:50:10.350Z,1015.61
2022-08-31T02:50:48.523Z,1015.61
2022-08-31T02:51:16.340Z,1015.51
2022-08-31T02:51:49.452Z,1015.51
2022-08-31T02:52:19.324Z,1015.61
2022-08-31T02:52:53.510Z,1015.61
2022-08-31T02:53:24.930Z,1015.34
2022-08-31T02:53:47.208Z,1015.51
2022-08-31T02:54:10.299Z,1015.51
2022-08-31T02:54:44.378Z,1015.51
2022-08-31T02:55:16.777Z,1015.51
2022-08-31T02:55:48.905Z,1015.51
2022-08-31T02:56:20.018Z,1015.51
2022-08-31T02:56:52.507Z,1015.51
2022-08-31T02:57:30.683Z,1015.44
2022-08-31T02:57:56.622Z,1015.44
2022-08-31T02:58:28.823Z,1015.44
2022-08-31T02:58:51.208Z,1015.34
2022-08-31T02:59:14.396Z,1015.34
2022-08-31T02:59:48.288Z,1015.34
2022-08-31T03:00:19.327Z,1015.51
2022-08-31T03:00:52.344Z,1015.51
2022-08-31T03:01:24.340Z,1015.61
2022-08-31T03:01:47.041Z,1015.51
2022-08-31T03:02:09.358Z,1015.51
2022-08-31T03:02:49.926Z,1015.51
2022-08-31T03:03:16.384Z,1015.44
2022-08-31T03:03:48.747Z,1015.44
2022-08-31T03:04:20.703Z,1015.51
2022-08-31T03:04:52.301Z,1015.51
2022-08-31T03:05:24.434Z,1015.44
2022-08-31T03:05:47.677Z,1015.51
2022-08-31T03:06:09.940Z,1015.51
2022-08-31T03:06:44.324Z,1015.51
2022-08-31T03:07:16.441Z,1015.44
2022-08-31T03:07:48.213Z,1015.44
2022-08-31T03:08:19.233Z,1015.44
2022-08-31T03:08:52.583Z,1015.44
2022-08-31T03:09:24.530Z,1015.44
2022-08-31T03:09:48.072Z,1015.44
2022-08-31T03:10:10.021Z,1015.44
2022-08-31T03:10:44.400Z,1015.44
2022-08-31T03:11:16.290Z,1015.44
2022-08-31T03:11:48.316Z,1015.44
2022-08-31T03:12:24.837Z,1015.34
2022-08-31T03:12:53.806Z,1015.34
2022-08-31T03:13:24.279Z,1015.51
2022-08-31T03:13:46.988Z,1015.44
2022-08-31T03:14:09.457Z,1015.44
2022-08-31T03:14:44.413Z,1015.44
2022-08-31T03:15:16.449Z,1015.51
2022-08-31T03:15:48.435Z,1015.51
2022-08-31T03:16:19.305Z,1015.51
2022-08-31T03:16:52.259Z,1015.51
2022-08-31T03:17:24.460Z,1015.71
2022-08-31T03:17:47.093Z,1015.51
2022-08-31T03:18:09.543Z,1015.51
2022-08-31T03:18:45.698Z,1015.51
2022-08-31T03:19:16.313Z,1015.44
2022-08-31T03:19:48.181Z,1015.44
2022-08-31T03:20:19.433Z,1015.44
2022-08-31T03:20:52.404Z,1015.44
2022-08-31T03:21:24.820Z,1015.71
2022-08-31T03:21:47.518Z,1015.51
2022-08-31T03:22:10.145Z,1015.51
2022-08-31T03:22:45.778Z,1015.51
2022-08-31T03:23:16.905Z,1015.44
2022-08-31T03:23:48.317Z,1015.44
2022-08-31T03:24:19.782Z,1015.44
2022-08-31T03:24:52.241Z,1015.44
2022-08-31T03:25:24.328Z,1015.34
2022-08-31T03:25:47.173Z,1015.44
2022-08-31T03:26:09.406Z,1015.44
2022-08-31T03:26:44.467Z,1015.44
2022-08-31T03:27:18.747Z,1015.44
2022-08-31T03:27:51.856Z,1015.44
2022-08-31T03:28:19.210Z,1015.51
2022-08-31T03:28:52.311Z,1015.51
2022-08-31T03:29:24.183Z,1015.51
2022-08-31T03:29:47.558Z,1015.61
2022-08-31T03:30:09.980Z,1015.61
2022-08-31T03:30:44.520Z,1015.61
2022-08-31T03:31:16.223Z,1015.51
2022-08-31T03:31:48.764Z,1015.51
2022-08-31T03:32:19.306Z,1015.51
2022-08-31T03:32:52.361Z,1015.51
2022-08-31T03:33:24.328Z,1015.61
2022-08-31T03:33:46.898Z,1015.51
2022-08-31T03:34:09.849Z,1015.51
2022-08-31T03:34:44.800Z,1015.51
2022-08-31T03:35:16.613Z,1015.34
2022-08-31T03:35:48.165Z,1015.34
2022-08-31T03:36:19.323Z,1015.44
2022-08-31T03:36:52.703Z,1015.44
2022-08-31T03:37:24.338Z,1015.44
2022-08-31T03:37:47.388Z,1015.51
2022-08-31T03:38:09.784Z,1015.51
2022-08-31T03:38:45.818Z,1015.51
2022-08-31T03:39:17.767Z,1015.51
2022-08-31T03:39:48.249Z,1015.51
2022-08-31T03:40:20.770Z,1015.34
2022-08-31T03:40:52.366Z,1015.34
2022-08-31T03:41:24.288Z,1015.34
2022-08-31T03:41:50.910Z,1015.44
2022-08-31T03:42:09.678Z,1015.44
2022-08-31T03:42:44.220Z,1015.44
2022-08-31T03:43:16.252Z,1015.34
2022-08-31T03:43:48.170Z,1015.34
2022-08-31T03:44:19.614Z,1015.51
2022-08-31T03:44:52.191Z,1015.51
2022-08-31T03:45:24.316Z,1015.44
2022-08-31T03:45:47.124Z,1015.34
2022-08-31T03:46:12.070Z,1015.34
2022-08-31T03:46:45.961Z,1015.34
2022-08-31T03:47:16.148Z,1015.51
2022-08-31T03:47:48.265Z,1015.51
2022-08-31T03:48:19.368Z,1015.51
2022-08-31T03:48:52.475Z,1015.51
2022-08-31T03:49:24.338Z,1015.51
2022-08-31T03:49:46.955Z,1015.34
2022-08-31T03:50:09.298Z,1015.34
2022-08-31T03:50:44.155Z,1015.34
2022-08-31T03:51:16.277Z,1015.44
2022-08-31T03:51:48.155Z,1015.44
2022-08-31T03:52:19.359Z,1015.51
2022-08-31T03:52:52.210Z,1015.51
2022-08-31T03:53:24.666Z,1015.61
2022-08-31T03:53:47.058Z,1015.51
2022-08-31T03:54:10.973Z,1015.51
2022-08-31T03:54:45.755Z,1015.51
2022-08-31T03:55:16.254Z,1015.71
2022-08-31T03:55:48.249Z,1015.71
2022-08-31T03:56:19.713Z,1015.61
2022-08-31T03:56:52.674Z,1015.61
2022-08-31T03:57:24.227Z,1015.51
2022-08-31T03:57:47.156Z,1015.61
2022-08-31T03:58:09.471Z,1015.61
2022-08-31T03:58:47.072Z,1015.61
2022-08-31T03:59:16.104Z,1015.61
2022-08-31T03:59:48.259Z,1015.61
2022-08-31T04:00:19.268Z,1015.71
2022-08-31T04:00:52.236Z,1015.71
2022-08-31T04:01:24.328Z,1015.71
2022-08-31T04:01:47.118Z,1015.44
2022-08-31T04:02:09.415Z,1015.44
2022-08-31T04:02:50.045Z,1015.44
2022-08-31T04:03:17.822Z,1015.71
2022-08-31T04:03:48.224Z,1015.71
2022-08-31T04:04:19.249Z,1015.44
2022-08-31T04:04:52.315Z,1015.44
2022-08-31T04:05:24.133Z,1015.71
2022-08-31T04:05:46.843Z,1015.51
2022-08-31T04:06:09.407Z,1015.51
2022-08-31T04:06:46.765Z,1015.51
2022-08-31T04:07:16.797Z,1015.51
2022-08-31T04:07:48.106Z,1015.51
2022-08-31T04:08:19.323Z,1015.61
2022-08-31T04:08:52.348Z,1015.61
2022-08-31T04:09:24.660Z,1015.44
2022-08-31T04:09:47.636Z,1015.61
2022-08-31T04:10:10.143Z,1015.61
2022-08-31T04:10:44.298Z,1015.61
2022-08-31T04:11:16.455Z,1015.61
2022-08-31T04:11:48.147Z,1015.61
2022-08-31T04:12:20.753Z,1015.71
2022-08-31T04:12:52.403Z,1015.71
2022-08-31T04:13:30.053Z,1015.61
2022-08-31T04:13:47.675Z,1015.61
2022-08-31T04:14:09.931Z,1015.61
2022-08-31T04:14:44.272Z,1015.61
2022-08-31T04:15:16.995Z,1015.61
2022-08-31T04:15:48.563Z,1015.61
2022-08-31T04:16:19.417Z,1015.51
2022-08-31T04:16:52.441Z,1015.51
2022-08-31T04:17:24.174Z,1015.61
2022-08-31T04:17:47.634Z,1015.71
2022-08-31T04:18:09.657Z,1015.71
2022-08-31T04:18:44.360Z,1015.71
2022-08-31T04:19:16.236Z,1015.71
2022-08-31T04:19:48.154Z,1015.71
2022-08-31T04:20:19.403Z,1015.51
2022-08-31T04:20:53.646Z,1015.51
2022-08-31T04:21:24.298Z,1015.71
2022-08-31T04:21:47.321Z,1015.51
2022-08-31T04:22:09.979Z,1015.51
2022-08-31T04:22:44.388Z,1015.51
2022-08-31T04:23:16.886Z,1015.61
2022-08-31T04:23:48.130Z,1015.61
2022-08-31T04:24:19.549Z,1015.71
2022-08-31T04:24:52.366Z,1015.71
2022-08-31T04:25:24.870Z,1015.44
2022-08-31T04:25:50.481Z,1015.71
2022-08-31T04:26:31.810Z,1015.71
2022-08-31T04:26:51.465Z,1015.81
2022-08-31T04:27:17.174Z,1015.81
2022-08-31T04:27:48.206Z,1015.81
2022-08-31T04:28:14.295Z,1015.51
2022-08-31T04:28:55.050Z,1015.51
2022-08-31T04:29:25.409Z,1015.81
2022-08-31T04:29:48.181Z,1015.71
2022-08-31T04:30:10.993Z,1015.71
2022-08-31T04:30:44.452Z,1015.71
2022-08-31T04:31:16.324Z,1015.61
2022-08-31T04:31:48.402Z,1015.61
2022-08-31T04:32:19.847Z,1015.81
2022-08-31T04:32:52.862Z,1015.81
2022-08-31T04:33:26.138Z,1015.71
2022-08-31T04:33:48.590Z,1015.71
2022-08-31T04:34:12.222Z,1015.71
2022-08-31T04:34:44.354Z,1015.71
2022-08-31T04:35:16.469Z,1015.61
2022-08-31T04:35:48.786Z,1015.61
2022-08-31T04:36:20.366Z,1015.71
2022-08-31T04:36:52.637Z,1015.71
2022-08-31T04:37:24.252Z,1015.61
2022-08-31T04:37:47.162Z,1015.92
2022-08-31T04:38:10.229Z,1015.92
2022-08-31T04:38:44.446Z,1015.92
2022-08-31T04:39:17.383Z,1015.61
2022-08-31T04:39:50.396Z,1015.61
2022-08-31T04:40:20.500Z,1015.71
2022-08-31T04:40:52.696Z,1015.71
2022-08-31T04:41:24.450Z,1015.61
2022-08-31T04:41:47.243Z,1015.61
2022-08-31T04:42:10.424Z,1015.61
2022-08-31T04:42:44.364Z,1015.61
2022-08-31T04:43:21.242Z,1015.71
2022-08-31T04:43:48.906Z,1015.71
2022-08-31T04:44:20.445Z,1015.81
2022-08-31T04:44:52.396Z,1015.81
2022-08-31T04:45:24.308Z,1015.71
2022-08-31T04:45:47.015Z,1015.61
2022-08-31T04:46:10.263Z,1015.61
2022-08-31T04:46:44.594Z,1015.61
2022-08-31T04:47:18.947Z,1015.92
2022-08-31T04:47:48.263Z,1015.92
2022-08-31T04:48:19.419Z,1015.81
2022-08-31T04:48:52.397Z,1015.81
2022-08-31T04:49:24.998Z,1015.71
2022-08-31T04:49:47.757Z,1015.92
2022-08-31T04:50:10.815Z,1015.92
2022-08-31T04:50:44.486Z,1015.92
2022-08-31T04:51:17.507Z,1015.81
2022-08-31T04:51:48.163Z,1015.81
2022-08-31T04:52:19.466Z,1015.92
2022-08-31T04:53:03.311Z,1015.92
2022-08-31T04:53:24.384Z,1015.92
2022-08-31T04:53:47.054Z,1015.81
2022-08-31T04:54:09.533Z,1015.81
2022-08-31T04:54:45.217Z,1015.81
2022-08-31T04:55:17.787Z,1015.92
2022-08-31T04:55:48.798Z,1015.92
2022-08-31T04:56:19.391Z,1016.02
2022-08-31T04:56:52.385Z,1016.02
2022-08-31T04:57:24.333Z,1015.81
2022-08-31T04:57:47.001Z,1015.81
2022-08-31T04:58:09.483Z,1015.81
2022-08-31T04:58:44.464Z,1015.81
2022-08-31T04:59:17.642Z,1016.02
2022-08-31T04:59:48.148Z,1016.02
2022-08-31T05:00:19.814Z,1015.92
2022-08-31T05:00:52.882Z,1015.92
2022-08-31T05:01:24.355Z,1015.92
2022-08-31T05:01:47.130Z,1015.92
2022-08-31T05:02:09.765Z,1015.92
2022-08-31T05:02:52.214Z,1015.92
2022-08-31T05:03:16.567Z,1015.92
2022-08-31T05:03:48.306Z,1015.92
2022-08-31T05:04:19.382Z,1015.92
2022-08-31T05:04:52.626Z,1015.92
2022-08-31T05:05:24.203Z,1016.12
2022-08-31T05:05:47.037Z,1016.02
2022-08-31T05:06:09.699Z,1016.02
2022-08-31T05:06:44.325Z,1016.02
2022-08-31T05:07:16.331Z,1016.22
2022-08-31T05:07:48.213Z,1016.22
2022-08-31T05:08:19.587Z,1016.02
2022-08-31T05:08:52.241Z,1016.02
2022-08-31T05:09:24.236Z,1015.81
2022-08-31T05:09:47.579Z,1015.81
2022-08-31T05:10:09.890Z,1015.81
2022-08-31T05:10:44.239Z,1015.81
2022-08-31T05:11:16.395Z,1015.81
2022-08-31T05:11:48.121Z,1015.81
2022-08-31T05:12:19.302Z,1016.02
2022-08-31T05:12:52.348Z,1016.02
2022-08-31T05:13:24.281Z,1016.12
2022-08-31T05:13:47.098Z,1015.92
2022-08-31T05:14:09.421Z,1015.92
2022-08-31T05:14:44.510Z,1015.92
2022-08-31T05:15:16.485Z,1015.92
2022-08-31T05:15:48.215Z,1015.92
2022-08-31T05:16:20.868Z,1016.02
2022-08-31T05:16:52.153Z,1016.02
2022-08-31T05:17:24.221Z,1016.02
2022-08-31T05:17:47.165Z,1015.92
2022-08-31T05:18:09.483Z,1015.92
2022-08-31T05:18:44.617Z,1015.92
2022-08-31T05:19:19.737Z,1016.02
2022-08-31T05:19:48.189Z,1016.02
2022-08-31T05:20:19.529Z,1016.02
2022-08-31T05:20:52.469Z,1016.02
2022-08-31T05:21:24.137Z,1015.81
2022-08-31T05:21:48.478Z,1016.12
2022-08-31T05:22:10.854Z,1016.12
2022-08-31T05:22:44.763Z,1016.12
2022-08-31T05:23:11.980Z,1016.22
2022-08-31T05:23:49.561Z,1016.22
2022-08-31T05:24:19.913Z,1016.02
2022-08-31T05:24:52.481Z,1016.02
2022-08-31T05:25:24.327Z,1015.81
2022-08-31T05:25:46.974Z,1015.81
2022-08-31T05:26:09.487Z,1015.81
2022-08-31T05:26:44.366Z,1015.81
2022-08-31T05:27:16.936Z,1016.02
2022-08-31T05:27:48.306Z,1016.02
2022-08-31T05:28:20.306Z,1015.92
2022-08-31T05:28:52.305Z,1015.92
2022-08-31T05:29:24.799Z,1015.92
2022-08-31T05:29:47.642Z,1016.02
2022-08-31T05:30:10.235Z,1016.02
2022-08-31T05:30:45.246Z,1016.02
2022-08-31T05:31:16.965Z,1015.92
2022-08-31T05:31:52.237Z,1015.92
2022-08-31T05:32:19.686Z,1015.92
2022-08-31T05:32:52.206Z,1015.92
2022-08-31T05:33:24.858Z,1015.81
2022-08-31T05:33:47.016Z,1016.02
2022-08-31T05:34:10.171Z,1016.02
2022-08-31T05:34:45.253Z,1016.02
2022-08-31T05:35:16.610Z,1015.81
2022-08-31T05:35:48.354Z,1015.81
2022-08-31T05:36:19.380Z,1015.92
2022-08-31T05:36:52.849Z,1015.92
2022-08-31T05:37:24.948Z,1016.02
2022-08-31T05:37:48.924Z,1016.12
2022-08-31T05:38:09.968Z,1016.12
2022-08-31T05:38:46.418Z,1016.12
2022-08-31T05:39:17.928Z,1015.92
2022-08-31T05:39:49.078Z,1015.92
2022-08-31T05:40:19.677Z,1016.02
2022-08-31T05:40:52.635Z,1016.02
2022-08-31T05:41:24.161Z,1015.92
2022-08-31T05:41:47.002Z,1015.81
2022-08-31T05:42:15.421Z,1015.81
2022-08-31T05:42:44.838Z,1015.81
2022-08-31T05:43:16.322Z,1015.92
2022-08-31T05:43:48.074Z,1015.92
2022-08-31T05:44:19.903Z,1016.02
2022-08-31T05:44:52.094Z,1016.02
2022-08-31T05:45:27.800Z,1016.12
2022-08-31T05:45:50.194Z,1016.22
2022-08-31T05:46:32.088Z,1016.22
2022-08-31T05:46:52.400Z,1015.92
2022-08-31T05:47:13.841Z,1015.92
2022-08-31T05:47:48.703Z,1015.92
2022-08-31T05:48:19.442Z,1016.12
2022-08-31T05:48:52.297Z,1016.12
2022-08-31T05:49:24.194Z,1015.92
2022-08-31T05:49:47.041Z,1016.02
2022-08-31T05:50:09.469Z,1016.02
2022-08-31T05:50:44.413Z,1016.02
2022-08-31T05:51:16.432Z,1016.02
2022-08-31T05:51:48.358Z,1016.02
2022-08-31T05:52:19.864Z,1015.92
2022-08-31T05:52:52.216Z,1015.92
2022-08-31T05:53:25.286Z,1016.22
2022-08-31T05:53:48.321Z,1016.22
2022-08-31T05:54:10.822Z,1016.22
2022-08-31T05:54:44.805Z,1016.22
2022-08-31T05:55:16.206Z,1016.02
2022-08-31T05:55:48.230Z,1016.02
2022-08-31T05:56:19.425Z,1015.81
2022-08-31T05:56:52.811Z,1015.81
2022-08-31T05:57:26.667Z,1016.02
2022-08-31T05:57:47.370Z,1015.92
2022-08-31T05:58:09.683Z,1015.92
2022-08-31T05:58:44.373Z,1015.92
2022-08-31T05:59:16.569Z,1015.81
2022-08-31T05:59:48.082Z,1015.81
2022-08-31T06:00:19.489Z,1016.02
2022-08-31T06:00:52.156Z,1016.02
2022-08-31T06:01:24.311Z,1015.92
2022-08-31T06:01:46.984Z,1016.12
2022-08-31T06:02:11.231Z,1016.12
2022-08-31T06:02:54.080Z,1016.02
2022-08-31T06:03:16.360Z,1016.02
2022-08-31T06:03:48.617Z,1016.02
2022-08-31T06:04:20.202Z,1016.22
2022-08-31T06:04:52.385Z,1016.22
2022-08-31T06:05:24.248Z,1016.22